sensor_id;sensor_type;location;lat;lon;timestamp;P1;durP1;ratioP1;P2;durP2;ratioP2
23001;SDS011;11667;51.706;4.856;2022-12-07T00:00:02;16.67;;;6.90;;
23001;SDS011;11667;51.706;4.856;2022-12-07T00:02:32;17.37;;;6.15;;
23001;SDS011;11667;51.706;4.856;2022-12-07T00:05:01;15.28;;;6.53;;
23001;SDS011;11667;51.706;4.856;2022-12-07T00:07:31;18.40;;;5.83;;
23001;SDS011;11667;51.706;4.856;2022-12-07T00:10:00;12.95;;;6.55;;
23001;SDS011;11667;51.706;4.856;2022-12-07T00:12:30;15.43;;;7.08;;
23001;SDS011;11667;51.706;4.856;2022-12-07T00:14:59;14.98;;;7.53;;
23001;SDS011;11667;51.706;4.856;2022-12-07T00:17:29;16.27;;;7.80;;
23001;SDS011;11667;51.706;4.856;2022-12-07T00:19:58;18.70;;;7.25;;
23001;SDS011;11667;51.706;4.856;2022-12-07T00:22:28;18.15;;;7.30;;
23001;SDS011;11667;51.706;4.856;2022-12-07T00:24:57;12.63;;;6.17;;
23001;SDS011;11667;51.706;4.856;2022-12-07T00:27:27;15.05;;;5.90;;
23001;SDS011;11667;51.706;4.856;2022-12-07T00:29:56;12.03;;;5.60;;
23001;SDS011;11667;51.706;4.856;2022-12-07T00:32:26;17.12;;;6.33;;
23001;SDS011;11667;51.706;4.856;2022-12-07T00:34:55;16.05;;;6.03;;
23001;SDS011;11667;51.706;4.856;2022-12-07T00:37:24;12.60;;;5.75;;
23001;SDS011;11667;51.706;4.856;2022-12-07T00:39:54;13.88;;;5.90;;
23001;SDS011;11667;51.706;4.856;2022-12-07T00:42:23;13.85;;;5.80;;
23001;SDS011;11667;51.706;4.856;2022-12-07T00:44:52;12.73;;;5.40;;
23001;SDS011;11667;51.706;4.856;2022-12-07T00:47:21;14.15;;;5.03;;
23001;SDS011;11667;51.706;4.856;2022-12-07T00:49:51;10.88;;;4.80;;
23001;SDS011;11667;51.706;4.856;2022-12-07T00:52:20;14.87;;;5.80;;
23001;SDS011;11667;51.706;4.856;2022-12-07T00:54:49;10.48;;;5.15;;
23001;SDS011;11667;51.706;4.856;2022-12-07T00:57:18;14.68;;;5.00;;
23001;SDS011;11667;51.706;4.856;2022-12-07T00:59:48;13.15;;;4.42;;
23001;SDS011;11667;51.706;4.856;2022-12-07T01:02:17;8.68;;;4.33;;
23001;SDS011;11667;51.706;4.856;2022-12-07T01:04:46;10.78;;;3.37;;
23001;SDS011;11667;51.706;4.856;2022-12-07T01:07:15;7.87;;;2.65;;
23001;SDS011;11667;51.706;4.856;2022-12-07T01:09:45;11.25;;;2.22;;
23001;SDS011;11667;51.706;4.856;2022-12-07T01:12:14;12.82;;;3.05;;
23001;SDS011;11667;51.706;4.856;2022-12-07T01:14:43;11.35;;;2.50;;
23001;SDS011;11667;51.706;4.856;2022-12-07T01:17:13;10.98;;;2.20;;
23001;SDS011;11667;51.706;4.856;2022-12-07T01:19:42;12.63;;;2.80;;
23001;SDS011;11667;51.706;4.856;2022-12-07T01:22:11;12.93;;;2.52;;
23001;SDS011;11667;51.706;4.856;2022-12-07T01:24:40;6.92;;;2.37;;
23001;SDS011;11667;51.706;4.856;2022-12-07T01:27:10;10.85;;;2.67;;
23001;SDS011;11667;51.706;4.856;2022-12-07T01:29:39;10.80;;;2.45;;
23001;SDS011;11667;51.706;4.856;2022-12-07T01:32:08;12.68;;;2.83;;
23001;SDS011;11667;51.706;4.856;2022-12-07T01:34:38;10.23;;;2.50;;
23001;SDS011;11667;51.706;4.856;2022-12-07T01:37:07;11.05;;;2.52;;
23001;SDS011;11667;51.706;4.856;2022-12-07T01:39:37;12.82;;;2.70;;
23001;SDS011;11667;51.706;4.856;2022-12-07T01:42:09;7.08;;;3.00;;
23001;SDS011;11667;51.706;4.856;2022-12-07T01:47:48;14.45;;;3.80;;
23001;SDS011;11667;51.706;4.856;2022-12-07T01:50:21;14.75;;;3.90;;
23001;SDS011;11667;51.706;4.856;2022-12-07T01:55:23;9.43;;;2.90;;
23001;SDS011;11667;51.706;4.856;2022-12-07T01:57:53;14.78;;;3.33;;
23001;SDS011;11667;51.706;4.856;2022-12-07T02:00:23;9.10;;;3.37;;
23001;SDS011;11667;51.706;4.856;2022-12-07T02:05:43;9.50;;;2.87;;
23001;SDS011;11667;51.706;4.856;2022-12-07T02:08:13;11.88;;;2.80;;
23001;SDS011;11667;51.706;4.856;2022-12-07T02:10:42;14.43;;;2.60;;
23001;SDS011;11667;51.706;4.856;2022-12-07T02:15:51;9.23;;;2.30;;
23001;SDS011;11667;51.706;4.856;2022-12-07T02:30:00;11.55;;;3.15;;
23001;SDS011;11667;51.706;4.856;2022-12-07T02:32:44;10.70;;;2.72;;
23001;SDS011;11667;51.706;4.856;2022-12-07T02:38:17;10.85;;;2.62;;
23001;SDS011;11667;51.706;4.856;2022-12-07T02:40:55;9.60;;;2.80;;
23001;SDS011;11667;51.706;4.856;2022-12-07T02:43:39;11.40;;;2.52;;
23001;SDS011;11667;51.706;4.856;2022-12-07T02:46:17;7.70;;;2.60;;
23001;SDS011;11667;51.706;4.856;2022-12-07T02:48:52;7.10;;;2.52;;
23001;SDS011;11667;51.706;4.856;2022-12-07T02:51:23;9.20;;;2.67;;
23001;SDS011;11667;51.706;4.856;2022-12-07T02:53:52;11.28;;;2.75;;
23001;SDS011;11667;51.706;4.856;2022-12-07T02:59:19;12.80;;;4.10;;
23001;SDS011;11667;51.706;4.856;2022-12-07T03:04:50;15.38;;;5.92;;
23001;SDS011;11667;51.706;4.856;2022-12-07T03:07:22;15.93;;;6.03;;
23001;SDS011;11667;51.706;4.856;2022-12-07T03:12:29;16.12;;;6.33;;
23001;SDS011;11667;51.706;4.856;2022-12-07T03:14:57;20.62;;;5.85;;
23001;SDS011;11667;51.706;4.856;2022-12-07T03:17:31;16.90;;;6.28;;
23001;SDS011;11667;51.706;4.856;2022-12-07T03:20:03;16.05;;;6.00;;
23001;SDS011;11667;51.706;4.856;2022-12-07T03:22:34;15.23;;;6.47;;
23001;SDS011;11667;51.706;4.856;2022-12-07T03:25:05;13.13;;;7.22;;
23001;SDS011;11667;51.706;4.856;2022-12-07T03:27:39;18.52;;;7.78;;
23001;SDS011;11667;51.706;4.856;2022-12-07T03:30:10;18.10;;;8.70;;
23001;SDS011;11667;51.706;4.856;2022-12-07T03:32:49;21.45;;;8.68;;
23001;SDS011;11667;51.706;4.856;2022-12-07T03:40:37;22.90;;;12.37;;
23001;SDS011;11667;51.706;4.856;2022-12-07T03:43:07;23.92;;;12.50;;
23001;SDS011;11667;51.706;4.856;2022-12-07T03:45:38;21.52;;;13.08;;
23001;SDS011;11667;51.706;4.856;2022-12-07T03:50:54;21.80;;;12.58;;
23001;SDS011;11667;51.706;4.856;2022-12-07T03:53:33;30.40;;;14.15;;
23001;SDS011;11667;51.706;4.856;2022-12-07T03:56:11;28.75;;;12.28;;
23001;SDS011;11667;51.706;4.856;2022-12-07T03:58:41;31.12;;;15.60;;
23001;SDS011;11667;51.706;4.856;2022-12-07T04:01:11;38.13;;;16.57;;
23001;SDS011;11667;51.706;4.856;2022-12-07T04:03:41;25.40;;;15.50;;
23001;SDS011;11667;51.706;4.856;2022-12-07T04:06:10;30.02;;;16.17;;
23001;SDS011;11667;51.706;4.856;2022-12-07T04:08:39;28.50;;;16.40;;
23001;SDS011;11667;51.706;4.856;2022-12-07T04:11:09;33.65;;;18.85;;
23001;SDS011;11667;51.706;4.856;2022-12-07T04:13:38;20.45;;;7.22;;
23001;SDS011;11667;51.706;4.856;2022-12-07T04:16:17;16.62;;;6.05;;
23001;SDS011;11667;51.706;4.856;2022-12-07T04:18:47;15.13;;;6.80;;
23001;SDS011;11667;51.706;4.856;2022-12-07T04:21:16;17.48;;;4.83;;
23001;SDS011;11667;51.706;4.856;2022-12-07T04:23:45;19.35;;;8.25;;
23001;SDS011;11667;51.706;4.856;2022-12-07T04:26:14;18.05;;;8.40;;
23001;SDS011;11667;51.706;4.856;2022-12-07T04:28:44;20.50;;;9.68;;
23001;SDS011;11667;51.706;4.856;2022-12-07T04:31:13;21.42;;;8.48;;
23001;SDS011;11667;51.706;4.856;2022-12-07T04:33:42;19.87;;;9.68;;
23001;SDS011;11667;51.706;4.856;2022-12-07T04:36:11;18.15;;;9.80;;
23001;SDS011;11667;51.706;4.856;2022-12-07T04:38:41;22.80;;;10.80;;
23001;SDS011;11667;51.706;4.856;2022-12-07T04:41:10;22.20;;;10.98;;
23001;SDS011;11667;51.706;4.856;2022-12-07T04:43:39;30.62;;;11.25;;
23001;SDS011;11667;51.706;4.856;2022-12-07T04:46:09;23.50;;;11.50;;
23001;SDS011;11667;51.706;4.856;2022-12-07T04:48:38;23.25;;;12.63;;
23001;SDS011;11667;51.706;4.856;2022-12-07T04:51:07;20.82;;;11.15;;
23001;SDS011;11667;51.706;4.856;2022-12-07T04:53:37;24.50;;;12.28;;
23001;SDS011;11667;51.706;4.856;2022-12-07T04:56:06;27.32;;;13.68;;
23001;SDS011;11667;51.706;4.856;2022-12-07T04:58:35;26.02;;;14.65;;
23001;SDS011;11667;51.706;4.856;2022-12-07T05:01:04;26.82;;;14.30;;
23001;SDS011;11667;51.706;4.856;2022-12-07T05:03:35;24.12;;;13.68;;
23001;SDS011;11667;51.706;4.856;2022-12-07T05:06:06;27.62;;;14.60;;
23001;SDS011;11667;51.706;4.856;2022-12-07T05:08:37;30.72;;;14.38;;
23001;SDS011;11667;51.706;4.856;2022-12-07T05:11:07;26.05;;;14.63;;
23001;SDS011;11667;51.706;4.856;2022-12-07T05:13:37;27.75;;;14.85;;
23001;SDS011;11667;51.706;4.856;2022-12-07T05:16:06;25.57;;;15.05;;
23001;SDS011;11667;51.706;4.856;2022-12-07T05:18:35;31.57;;;16.65;;
23001;SDS011;11667;51.706;4.856;2022-12-07T05:21:05;29.98;;;15.30;;
23001;SDS011;11667;51.706;4.856;2022-12-07T05:23:34;26.65;;;16.05;;
23001;SDS011;11667;51.706;4.856;2022-12-07T05:26:03;30.08;;;16.65;;
23001;SDS011;11667;51.706;4.856;2022-12-07T05:28:32;28.73;;;16.85;;
23001;SDS011;11667;51.706;4.856;2022-12-07T05:31:02;33.92;;;17.05;;
23001;SDS011;11667;51.706;4.856;2022-12-07T05:33:31;35.65;;;17.70;;
23001;SDS011;11667;51.706;4.856;2022-12-07T05:36:01;27.87;;;14.98;;
23001;SDS011;11667;51.706;4.856;2022-12-07T05:38:32;31.23;;;15.90;;
23001;SDS011;11667;51.706;4.856;2022-12-07T05:41:02;28.67;;;13.98;;
23001;SDS011;11667;51.706;4.856;2022-12-07T05:43:32;34.30;;;16.23;;
23001;SDS011;11667;51.706;4.856;2022-12-07T05:46:02;30.00;;;16.60;;
23001;SDS011;11667;51.706;4.856;2022-12-07T05:48:31;31.20;;;16.15;;
23001;SDS011;11667;51.706;4.856;2022-12-07T05:51:01;33.85;;;16.62;;
23001;SDS011;11667;51.706;4.856;2022-12-07T05:53:30;35.75;;;17.52;;
23001;SDS011;11667;51.706;4.856;2022-12-07T05:55:59;33.73;;;17.00;;
23001;SDS011;11667;51.706;4.856;2022-12-07T05:58:28;33.00;;;17.45;;
23001;SDS011;11667;51.706;4.856;2022-12-07T06:01:16;36.13;;;17.87;;
23001;SDS011;11667;51.706;4.856;2022-12-07T06:03:45;35.63;;;16.97;;
23001;SDS011;11667;51.706;4.856;2022-12-07T06:06:14;37.40;;;18.35;;
23001;SDS011;11667;51.706;4.856;2022-12-07T06:08:44;35.10;;;17.80;;
23001;SDS011;11667;51.706;4.856;2022-12-07T06:11:13;33.80;;;17.92;;
23001;SDS011;11667;51.706;4.856;2022-12-07T06:14:00;31.40;;;17.10;;
23001;SDS011;11667;51.706;4.856;2022-12-07T06:16:30;38.63;;;17.45;;
23001;SDS011;11667;51.706;4.856;2022-12-07T06:18:59;37.40;;;18.52;;
23001;SDS011;11667;51.706;4.856;2022-12-07T06:21:28;38.30;;;18.82;;
23001;SDS011;11667;51.706;4.856;2022-12-07T06:23:58;37.03;;;18.27;;
23001;SDS011;11667;51.706;4.856;2022-12-07T06:26:27;37.45;;;19.05;;
23001;SDS011;11667;51.706;4.856;2022-12-07T06:28:56;41.40;;;19.90;;
23001;SDS011;11667;51.706;4.856;2022-12-07T06:31:25;34.00;;;18.27;;
23001;SDS011;11667;51.706;4.856;2022-12-07T06:34:02;35.98;;;17.80;;
23001;SDS011;11667;51.706;4.856;2022-12-07T06:36:34;39.30;;;18.48;;
23001;SDS011;11667;51.706;4.856;2022-12-07T06:39:04;38.63;;;17.20;;
23001;SDS011;11667;51.706;4.856;2022-12-07T06:41:34;36.73;;;16.57;;
23001;SDS011;11667;51.706;4.856;2022-12-07T06:44:04;36.25;;;17.45;;
23001;SDS011;11667;51.706;4.856;2022-12-07T06:46:34;37.08;;;19.15;;
23001;SDS011;11667;51.706;4.856;2022-12-07T06:49:04;42.78;;;19.37;;
23001;SDS011;11667;51.706;4.856;2022-12-07T06:51:34;35.55;;;18.07;;
23001;SDS011;11667;51.706;4.856;2022-12-07T06:54:05;34.18;;;16.67;;
23001;SDS011;11667;51.706;4.856;2022-12-07T06:56:35;36.00;;;16.62;;
23001;SDS011;11667;51.706;4.856;2022-12-07T06:59:05;33.85;;;15.23;;
23001;SDS011;11667;51.706;4.856;2022-12-07T07:01:35;35.30;;;14.87;;
23001;SDS011;11667;51.706;4.856;2022-12-07T07:04:04;31.73;;;15.20;;
23001;SDS011;11667;51.706;4.856;2022-12-07T07:06:34;27.98;;;14.33;;
23001;SDS011;11667;51.706;4.856;2022-12-07T07:09:03;34.60;;;15.68;;
23001;SDS011;11667;51.706;4.856;2022-12-07T07:11:32;36.83;;;17.98;;
23001;SDS011;11667;51.706;4.856;2022-12-07T07:14:01;41.50;;;19.95;;
23001;SDS011;11667;51.706;4.856;2022-12-07T07:16:31;44.40;;;17.30;;
23001;SDS011;11667;51.706;4.856;2022-12-07T07:19:01;46.40;;;23.32;;
23001;SDS011;11667;51.706;4.856;2022-12-07T07:21:30;44.67;;;20.20;;
23001;SDS011;11667;51.706;4.856;2022-12-07T07:24:00;44.80;;;17.15;;
23001;SDS011;11667;51.706;4.856;2022-12-07T07:26:29;30.77;;;15.48;;
23001;SDS011;11667;51.706;4.856;2022-12-07T07:28:58;34.98;;;15.78;;
23001;SDS011;11667;51.706;4.856;2022-12-07T07:31:27;32.23;;;15.18;;
23001;SDS011;11667;51.706;4.856;2022-12-07T07:33:57;36.15;;;16.02;;
23001;SDS011;11667;51.706;4.856;2022-12-07T07:36:26;34.83;;;16.17;;
23001;SDS011;11667;51.706;4.856;2022-12-07T07:38:55;41.05;;;16.48;;
23001;SDS011;11667;51.706;4.856;2022-12-07T07:41:25;33.65;;;15.98;;
23001;SDS011;11667;51.706;4.856;2022-12-07T07:43:54;37.70;;;15.50;;
23001;SDS011;11667;51.706;4.856;2022-12-07T07:46:23;34.23;;;15.50;;
23001;SDS011;11667;51.706;4.856;2022-12-07T07:48:52;37.00;;;14.90;;
23001;SDS011;11667;51.706;4.856;2022-12-07T07:51:22;36.35;;;15.72;;
23001;SDS011;11667;51.706;4.856;2022-12-07T07:53:52;35.52;;;16.30;;
23001;SDS011;11667;51.706;4.856;2022-12-07T07:56:21;40.83;;;16.48;;
23001;SDS011;11667;51.706;4.856;2022-12-07T07:58:53;39.60;;;16.87;;
23001;SDS011;11667;51.706;4.856;2022-12-07T08:01:23;34.48;;;13.25;;
23001;SDS011;11667;51.706;4.856;2022-12-07T08:03:52;30.15;;;13.98;;
23001;SDS011;11667;51.706;4.856;2022-12-07T08:06:21;34.13;;;16.20;;
23001;SDS011;11667;51.706;4.856;2022-12-07T08:08:52;38.13;;;16.37;;
23001;SDS011;11667;51.706;4.856;2022-12-07T08:11:22;32.90;;;15.83;;
23001;SDS011;11667;51.706;4.856;2022-12-07T08:13:51;40.60;;;16.15;;
23001;SDS011;11667;51.706;4.856;2022-12-07T08:16:20;33.08;;;16.12;;
23001;SDS011;11667;51.706;4.856;2022-12-07T08:18:50;34.25;;;16.97;;
23001;SDS011;11667;51.706;4.856;2022-12-07T08:21:19;30.45;;;16.12;;
23001;SDS011;11667;51.706;4.856;2022-12-07T08:23:49;38.92;;;16.02;;
23001;SDS011;11667;51.706;4.856;2022-12-07T08:26:18;31.37;;;15.98;;
23001;SDS011;11667;51.706;4.856;2022-12-07T08:28:47;26.60;;;15.13;;
23001;SDS011;11667;51.706;4.856;2022-12-07T08:31:17;35.63;;;15.48;;
23001;SDS011;11667;51.706;4.856;2022-12-07T08:33:47;38.23;;;15.18;;
23001;SDS011;11667;51.706;4.856;2022-12-07T08:36:17;33.25;;;15.90;;
23001;SDS011;11667;51.706;4.856;2022-12-07T08:38:46;30.08;;;15.28;;
23001;SDS011;11667;51.706;4.856;2022-12-07T08:41:17;29.25;;;15.18;;
23001;SDS011;11667;51.706;4.856;2022-12-07T08:43:46;30.60;;;15.83;;
23001;SDS011;11667;51.706;4.856;2022-12-07T08:48:53;37.08;;;16.35;;
23001;SDS011;11667;51.706;4.856;2022-12-07T08:51:23;31.93;;;14.68;;
23001;SDS011;11667;51.706;4.856;2022-12-07T08:53:53;34.85;;;15.55;;
23001;SDS011;11667;51.706;4.856;2022-12-07T08:56:23;37.42;;;16.45;;
23001;SDS011;11667;51.706;4.856;2022-12-07T08:58:53;29.60;;;15.30;;
23001;SDS011;11667;51.706;4.856;2022-12-07T09:01:22;31.33;;;15.00;;
23001;SDS011;11667;51.706;4.856;2022-12-07T09:03:52;34.23;;;14.55;;
23001;SDS011;11667;51.706;4.856;2022-12-07T09:06:21;26.37;;;13.15;;
23001;SDS011;11667;51.706;4.856;2022-12-07T09:08:52;23.67;;;12.63;;
23001;SDS011;11667;51.706;4.856;2022-12-07T09:11:22;25.57;;;12.07;;
23001;SDS011;11667;51.706;4.856;2022-12-07T09:13:54;22.17;;;12.28;;
23001;SDS011;11667;51.706;4.856;2022-12-07T09:16:23;33.60;;;13.20;;
23001;SDS011;11667;51.706;4.856;2022-12-07T09:18:53;26.97;;;13.00;;
23001;SDS011;11667;51.706;4.856;2022-12-07T09:21:22;27.32;;;12.00;;
23001;SDS011;11667;51.706;4.856;2022-12-07T09:23:51;30.15;;;11.18;;
23001;SDS011;11667;51.706;4.856;2022-12-07T09:26:21;23.45;;;10.53;;
23001;SDS011;11667;51.706;4.856;2022-12-07T09:28:50;21.25;;;9.00;;
23001;SDS011;11667;51.706;4.856;2022-12-07T09:31:19;22.85;;;9.40;;
23001;SDS011;11667;51.706;4.856;2022-12-07T09:33:57;18.23;;;8.30;;
23001;SDS011;11667;51.706;4.856;2022-12-07T09:36:28;19.52;;;8.98;;
23001;SDS011;11667;51.706;4.856;2022-12-07T09:38:57;23.40;;;8.25;;
23001;SDS011;11667;51.706;4.856;2022-12-07T09:41:27;18.00;;;8.23;;
23001;SDS011;11667;51.706;4.856;2022-12-07T09:44:03;18.00;;;8.08;;
23001;SDS011;11667;51.706;4.856;2022-12-07T09:46:38;16.45;;;8.10;;
23001;SDS011;11667;51.706;4.856;2022-12-07T09:49:16;18.17;;;7.50;;
23001;SDS011;11667;51.706;4.856;2022-12-07T09:51:46;15.60;;;6.42;;
23001;SDS011;11667;51.706;4.856;2022-12-07T09:54:16;12.68;;;5.62;;
23001;SDS011;11667;51.706;4.856;2022-12-07T09:56:45;18.25;;;5.10;;
23001;SDS011;11667;51.706;4.856;2022-12-07T09:59:20;11.97;;;4.35;;
23001;SDS011;11667;51.706;4.856;2022-12-07T10:01:46;12.80;;;4.15;;
23001;SDS011;11667;51.706;4.856;2022-12-07T10:04:21;12.95;;;4.33;;
23001;SDS011;11667;51.706;4.856;2022-12-07T10:06:52;9.38;;;3.62;;
23001;SDS011;11667;51.706;4.856;2022-12-07T10:09:21;16.52;;;4.40;;
23001;SDS011;11667;51.706;4.856;2022-12-07T10:12:02;11.80;;;4.10;;
23001;SDS011;11667;51.706;4.856;2022-12-07T10:14:34;9.10;;;3.87;;
23001;SDS011;11667;51.706;4.856;2022-12-07T10:20:12;10.48;;;3.47;;
23001;SDS011;11667;51.706;4.856;2022-12-07T10:22:57;10.20;;;3.42;;
23001;SDS011;11667;51.706;4.856;2022-12-07T10:25:34;9.43;;;2.98;;
23001;SDS011;11667;51.706;4.856;2022-12-07T10:31:00;11.83;;;2.95;;
23001;SDS011;11667;51.706;4.856;2022-12-07T10:33:33;6.05;;;2.42;;
23001;SDS011;11667;51.706;4.856;2022-12-07T10:38:51;8.23;;;2.12;;
23001;SDS011;11667;51.706;4.856;2022-12-07T10:41:21;12.18;;;2.02;;
23001;SDS011;11667;51.706;4.856;2022-12-07T10:43:52;9.85;;;2.20;;
23001;SDS011;11667;51.706;4.856;2022-12-07T10:46:29;6.40;;;2.20;;
23001;SDS011;11667;51.706;4.856;2022-12-07T10:51:45;8.40;;;2.50;;
23001;SDS011;11667;51.706;4.856;2022-12-07T10:57:13;12.33;;;3.52;;
23001;SDS011;11667;51.706;4.856;2022-12-07T11:10:53;12.40;;;3.00;;
23001;SDS011;11667;51.706;4.856;2022-12-07T11:22:06;8.70;;;1.95;;
23001;SDS011;11667;51.706;4.856;2022-12-07T11:27:24;10.45;;;2.60;;
23001;SDS011;11667;51.706;4.856;2022-12-07T11:35:29;10.95;;;2.33;;
23001;SDS011;11667;51.706;4.856;2022-12-07T11:37:55;8.23;;;2.40;;
23001;SDS011;11667;51.706;4.856;2022-12-07T11:40:35;9.80;;;2.72;;
23001;SDS011;11667;51.706;4.856;2022-12-07T11:43:07;13.03;;;2.50;;
23001;SDS011;11667;51.706;4.856;2022-12-07T11:45:44;7.53;;;2.33;;
23001;SDS011;11667;51.706;4.856;2022-12-07T11:48:18;7.45;;;2.45;;
23001;SDS011;11667;51.706;4.856;2022-12-07T11:50:55;6.08;;;1.32;;
23001;SDS011;11667;51.706;4.856;2022-12-07T11:53:27;13.33;;;2.27;;
23001;SDS011;11667;51.706;4.856;2022-12-07T11:56:16;10.08;;;2.25;;
23001;SDS011;11667;51.706;4.856;2022-12-07T12:04:17;5.97;;;1.42;;
23001;SDS011;11667;51.706;4.856;2022-12-07T12:06:55;7.47;;;1.75;;
23001;SDS011;11667;51.706;4.856;2022-12-07T12:09:26;9.10;;;2.60;;
23001;SDS011;11667;51.706;4.856;2022-12-07T12:18:02;11.30;;;2.80;;
23001;SDS011;11667;51.706;4.856;2022-12-07T12:20:45;10.40;;;3.95;;
23001;SDS011;11667;51.706;4.856;2022-12-07T12:23:27;11.03;;;3.40;;
23001;SDS011;11667;51.706;4.856;2022-12-07T12:25:54;6.53;;;3.00;;
23001;SDS011;11667;51.706;4.856;2022-12-07T12:31:36;11.15;;;4.50;;
23001;SDS011;11667;51.706;4.856;2022-12-07T12:36:58;13.68;;;4.25;;
23001;SDS011;11667;51.706;4.856;2022-12-07T12:39:28;8.55;;;3.60;;
23001;SDS011;11667;51.706;4.856;2022-12-07T12:41:57;6.90;;;2.87;;
23001;SDS011;11667;51.706;4.856;2022-12-07T12:47:02;7.58;;;2.75;;
23001;SDS011;11667;51.706;4.856;2022-12-07T12:49:33;6.12;;;2.00;;
23001;SDS011;11667;51.706;4.856;2022-12-07T12:55:14;7.35;;;1.70;;
23001;SDS011;11667;51.706;4.856;2022-12-07T12:57:39;4.60;;;1.67;;
23001;SDS011;11667;51.706;4.856;2022-12-07T13:00:21;4.53;;;1.22;;
23001;SDS011;11667;51.706;4.856;2022-12-07T13:02:53;5.95;;;1.00;;
23001;SDS011;11667;51.706;4.856;2022-12-07T13:05:25;3.60;;;1.02;;
23001;SDS011;11667;51.706;4.856;2022-12-07T13:08:02;3.87;;;1.05;;
23001;SDS011;11667;51.706;4.856;2022-12-07T13:10:37;7.50;;;1.37;;
23001;SDS011;11667;51.706;4.856;2022-12-07T13:15:49;5.65;;;1.12;;
23001;SDS011;11667;51.706;4.856;2022-12-07T13:26:22;4.30;;;1.12;;
23001;SDS011;11667;51.706;4.856;2022-12-07T13:29:06;2.08;;;0.72;;
23001;SDS011;11667;51.706;4.856;2022-12-07T13:31:50;3.87;;;0.85;;
23001;SDS011;11667;51.706;4.856;2022-12-07T13:34:27;2.77;;;0.93;;
23001;SDS011;11667;51.706;4.856;2022-12-07T13:39:56;2.47;;;1.00;;
23001;SDS011;11667;51.706;4.856;2022-12-07T13:42:27;4.27;;;1.50;;
23001;SDS011;11667;51.706;4.856;2022-12-07T13:44:57;3.55;;;1.30;;
23001;SDS011;11667;51.706;4.856;2022-12-07T13:47:41;5.10;;;1.85;;
23001;SDS011;11667;51.706;4.856;2022-12-07T13:50:23;5.08;;;1.80;;
23001;SDS011;11667;51.706;4.856;2022-12-07T13:52:55;7.42;;;1.70;;
23001;SDS011;11667;51.706;4.856;2022-12-07T13:55:26;7.83;;;2.25;;
23001;SDS011;11667;51.706;4.856;2022-12-07T13:57:56;9.80;;;2.12;;
23001;SDS011;11667;51.706;4.856;2022-12-07T14:00:26;6.90;;;2.25;;
23001;SDS011;11667;51.706;4.856;2022-12-07T14:02:58;8.50;;;2.17;;
23001;SDS011;11667;51.706;4.856;2022-12-07T14:05:42;10.08;;;2.90;;
23001;SDS011;11667;51.706;4.856;2022-12-07T14:13:29;7.75;;;2.33;;
23001;SDS011;11667;51.706;4.856;2022-12-07T14:16:02;8.55;;;3.20;;
23001;SDS011;11667;51.706;4.856;2022-12-07T14:18:37;13.45;;;4.47;;
23001;SDS011;11667;51.706;4.856;2022-12-07T14:23:43;14.85;;;4.20;;
23001;SDS011;11667;51.706;4.856;2022-12-07T14:26:13;8.10;;;2.87;;
23001;SDS011;11667;51.706;4.856;2022-12-07T14:28:43;5.30;;;1.57;;
23001;SDS011;11667;51.706;4.856;2022-12-07T14:31:14;12.65;;;4.42;;
23001;SDS011;11667;51.706;4.856;2022-12-07T14:33:49;15.05;;;5.53;;
23001;SDS011;11667;51.706;4.856;2022-12-07T14:36:18;10.82;;;4.83;;
23001;SDS011;11667;51.706;4.856;2022-12-07T14:38:47;8.00;;;3.35;;
23001;SDS011;11667;51.706;4.856;2022-12-07T14:41:17;8.13;;;2.60;;
23001;SDS011;11667;51.706;4.856;2022-12-07T14:44:10;21.77;;;6.55;;
23001;SDS011;11667;51.706;4.856;2022-12-07T14:46:43;12.45;;;3.83;;
23001;SDS011;11667;51.706;4.856;2022-12-07T14:49:14;13.98;;;3.75;;
23001;SDS011;11667;51.706;4.856;2022-12-07T14:51:45;9.23;;;3.02;;
23001;SDS011;11667;51.706;4.856;2022-12-07T14:54:17;5.40;;;1.80;;
23001;SDS011;11667;51.706;4.856;2022-12-07T14:56:47;22.80;;;13.20;;
23001;SDS011;11667;51.706;4.856;2022-12-07T14:59:18;15.23;;;5.60;;
23001;SDS011;11667;51.706;4.856;2022-12-07T15:01:47;10.72;;;6.67;;
23001;SDS011;11667;51.706;4.856;2022-12-07T15:04:16;8.63;;;4.25;;
23001;SDS011;11667;51.706;4.856;2022-12-07T15:07:02;12.18;;;5.67;;
23001;SDS011;11667;51.706;4.856;2022-12-07T15:09:27;12.78;;;5.12;;
23001;SDS011;11667;51.706;4.856;2022-12-07T15:11:56;13.53;;;4.55;;
23001;SDS011;11667;51.706;4.856;2022-12-07T15:14:26;16.02;;;9.18;;
23001;SDS011;11667;51.706;4.856;2022-12-07T15:16:55;17.90;;;12.60;;
23001;SDS011;11667;51.706;4.856;2022-12-07T15:19:26;11.22;;;4.30;;
23001;SDS011;11667;51.706;4.856;2022-12-07T15:21:57;11.63;;;5.80;;
23001;SDS011;11667;51.706;4.856;2022-12-07T15:24:27;43.85;;;31.02;;
23001;SDS011;11667;51.706;4.856;2022-12-07T15:26:56;29.87;;;16.90;;
23001;SDS011;11667;51.706;4.856;2022-12-07T15:29:26;19.10;;;11.50;;
23001;SDS011;11667;51.706;4.856;2022-12-07T15:31:55;11.03;;;6.60;;
23001;SDS011;11667;51.706;4.856;2022-12-07T15:34:25;10.72;;;5.60;;
23001;SDS011;11667;51.706;4.856;2022-12-07T15:36:57;35.95;;;26.55;;
23001;SDS011;11667;51.706;4.856;2022-12-07T15:39:26;7.22;;;3.35;;
23001;SDS011;11667;51.706;4.856;2022-12-07T15:41:56;7.65;;;3.72;;
23001;SDS011;11667;51.706;4.856;2022-12-07T15:44:25;9.55;;;6.62;;
23001;SDS011;11667;51.706;4.856;2022-12-07T15:47:12;8.58;;;5.58;;
23001;SDS011;11667;51.706;4.856;2022-12-07T15:49:42;8.00;;;4.83;;
23001;SDS011;11667;51.706;4.856;2022-12-07T15:52:11;5.47;;;3.85;;
23001;SDS011;11667;51.706;4.856;2022-12-07T15:54:40;8.85;;;4.40;;
23001;SDS011;11667;51.706;4.856;2022-12-07T15:57:10;10.28;;;4.97;;
23001;SDS011;11667;51.706;4.856;2022-12-07T15:59:39;12.37;;;5.20;;
23001;SDS011;11667;51.706;4.856;2022-12-07T16:02:09;5.17;;;3.72;;
23001;SDS011;11667;51.706;4.856;2022-12-07T16:04:39;19.40;;;14.15;;
23001;SDS011;11667;51.706;4.856;2022-12-07T16:07:08;7.60;;;2.35;;
23001;SDS011;11667;51.706;4.856;2022-12-07T16:09:39;8.10;;;4.08;;
23001;SDS011;11667;51.706;4.856;2022-12-07T16:12:08;5.97;;;3.52;;
23001;SDS011;11667;51.706;4.856;2022-12-07T16:14:38;4.67;;;2.40;;
23001;SDS011;11667;51.706;4.856;2022-12-07T16:17:08;9.40;;;5.67;;
23001;SDS011;11667;51.706;4.856;2022-12-07T16:19:37;12.75;;;4.20;;
23001;SDS011;11667;51.706;4.856;2022-12-07T16:22:07;7.87;;;4.45;;
23001;SDS011;11667;51.706;4.856;2022-12-07T16:24:36;12.90;;;6.60;;
23001;SDS011;11667;51.706;4.856;2022-12-07T16:27:05;16.55;;;8.73;;
23001;SDS011;11667;51.706;4.856;2022-12-07T16:29:35;13.32;;;8.18;;
23001;SDS011;11667;51.706;4.856;2022-12-07T16:32:04;17.82;;;10.08;;
23001;SDS011;11667;51.706;4.856;2022-12-07T16:34:34;15.30;;;7.10;;
23001;SDS011;11667;51.706;4.856;2022-12-07T16:37:03;8.20;;;4.28;;
23001;SDS011;11667;51.706;4.856;2022-12-07T16:39:32;9.85;;;5.20;;
23001;SDS011;11667;51.706;4.856;2022-12-07T16:42:02;15.18;;;10.13;;
23001;SDS011;11667;51.706;4.856;2022-12-07T16:44:32;10.55;;;4.87;;
23001;SDS011;11667;51.706;4.856;2022-12-07T16:47:01;8.65;;;4.20;;
23001;SDS011;11667;51.706;4.856;2022-12-07T16:49:30;8.60;;;4.60;;
23001;SDS011;11667;51.706;4.856;2022-12-07T16:52:00;10.08;;;4.12;;
23001;SDS011;11667;51.706;4.856;2022-12-07T16:54:31;10.03;;;3.50;;
23001;SDS011;11667;51.706;4.856;2022-12-07T16:57:00;8.83;;;4.25;;
23001;SDS011;11667;51.706;4.856;2022-12-07T16:59:29;9.25;;;3.35;;
23001;SDS011;11667;51.706;4.856;2022-12-07T17:01:59;7.72;;;5.03;;
23001;SDS011;11667;51.706;4.856;2022-12-07T17:04:28;11.00;;;5.70;;
23001;SDS011;11667;51.706;4.856;2022-12-07T17:06:58;8.85;;;6.62;;